Aeroporto :
LOGIN :

Iscrizione | Disclaimer

   EN    FR    IT 

 










Sommario :    VFR   VFR Marginale   IFR   IFR Intensivo   IFR Molto Intensivo
Visibilità : 
Base nubi : 
>= 8 km
>= 3000ft
5 / 8 km
1000 / 3000 ft
1500m / 5 km
500 / 1000 ft
800 / 1500m
200 / 500 ft
< 800m
< 200 ft
Simboli :   Temporali  Nebbia  Neve Forte  Precipitazioni Forti  Vento > 20 kt
SIGMETs :   Varie  Temporali  Ghiacco  Turbolenza  Onda orograficha  Ceneri Vulcaniche






- Altitudine del aeroporto : 626 ft
- Codice IATA : CRA


LRCV - Craiova

ULTIMO METAR :
  • 011430Z 10010KT 9999 -SN BKN030 OVC040 03/M04 Q1019 R27/29//95

METARs OBSOLETI :
  • 011400Z 10013KT 9999 -SN BKN030 OVC044 03/M03 Q1019 R27/29//95
  • 011330Z 10011KT 9999 SCT040 OVC048 03/M04 Q1020 R27/29//95
  • 011300Z 10012KT 9999 FEW036 OVC045 03/M03 Q1020 R27/29//95
  • 011230Z 09013KT 9999 FEW027 OVC036 03/M04 Q1020 R27/29//95
  • 011200Z 11012KT 8000 FEW026 OVC035 02/M04 Q1020 R27/29//95

TAF TAF LRCV
Valido dal 01 a 15 ore il 02 a 00 ore UTC


011400Z 0115/0124 10012KT 9999 SCT030 BKN045
TEMPO 0115/0117 5000 -SN



MetMap, La meteo Aeronautica in un colpo d'occhio ! - Copyright ORBIFLY Dicembre 2007 - Disclaimer

ORBIFLY MET'MAP TEAM :

Programmazione e sviluppo : Alexandra Zaïnal
Concezione : Baudouin d'Aumeries
Aiuto per la programmazione : Marc-Olivier Méhu
Supporto tecnico e logistico : Manuel Goepfert
Aiuto per la traduzione : Arnaldo La Scala

Contatto : metmap@orbifly.com




FONTI E CREDITI :

   NOAA